Time;durP1;ratioP1;P1;durP2;ratioP2;P2;SDS_P1;SDS_P2;PMS_P1;PMS_P2;Temp;Humidity;BMP_temperature;BMP_pressure;BME280_temperature;BME280_humidity;BME280_pressure;Samples;Min_cycle;Max_cycle;Signal;HPM_P1;HPM_P2
2022/01/01 00:00:27;;;;;;;2.58;1.88;;;13.70;99.50;;;;;;9171883;19;20094;-72
2022/01/01 00:03:33;;;;;;;2.55;1.38;;;13.70;99.60;;;;;;9174519;19;20010;-72
2022/01/01 00:06:38;;;;;;;2.65;1.70;;;13.70;99.50;;;;;;9176527;19;20039;-72
2022/01/01 00:09:43;;;;;;;3.00;1.50;;;13.60;99.50;;;;;;9179204;19;20511;-73
2022/01/01 00:12:49;;;;;;;2.55;2.05;;;13.70;99.50;;;;;;9175122;19;20014;-72
2022/01/01 00:15:56;;;;;;;2.45;1.77;;;13.60;99.50;;;;;;9177604;19;20025;-73
2022/01/01 00:19:01;;;;;;;1.95;1.40;;;13.60;99.50;;;;;;9175990;19;20367;-73
2022/01/01 00:22:07;;;;;;;1.67;1.20;;;13.60;99.50;;;;;;9176897;19;20023;-72
2022/01/01 00:25:13;;;;;;;2.80;1.27;;;13.60;99.40;;;;;;9178015;19;20464;-72
2022/01/01 00:28:18;;;;;;;1.30;1.20;;;13.60;99.40;;;;;;9180127;19;20003;-73
2022/01/01 00:31:26;;;;;;;2.40;1.40;;;13.60;99.40;;;;;;9176978;19;20014;-72
2022/01/01 00:34:31;;;;;;;2.28;1.42;;;13.60;99.50;;;;;;9176431;19;20107;-73
2022/01/01 00:37:36;;;;;;;2.05;1.35;;;13.50;99.40;;;;;;9175694;19;20617;-72
2022/01/01 00:40:41;;;;;;;2.75;1.55;;;13.60;99.70;;;;;;9176325;19;20025;-72
2022/01/01 00:43:47;;;;;;;2.63;1.35;;;13.50;99.40;;;;;;9177716;19;20010;-73
2022/01/01 00:46:54;;;;;;;1.98;1.30;;;13.50;99.40;;;;;;9178685;19;20352;-72
2022/01/01 00:49:59;;;;;;;2.30;1.40;;;13.50;99.50;;;;;;9175925;19;20050;-72
2022/01/01 00:53:05;;;;;;;2.20;1.30;;;13.50;99.70;;;;;;9171992;19;20015;-73
2022/01/01 00:56:10;;;;;;;2.33;1.30;;;13.50;99.70;;;;;;9173638;19;20014;-73
2022/01/01 00:59:15;;;;;;;2.20;1.10;;;13.50;99.50;;;;;;9174279;19;20011;-73
2022/01/01 01:02:22;;;;;;;2.35;1.35;;;13.50;99.50;;;;;;9176419;19;20018;-72
2022/01/01 01:05:28;;;;;;;2.25;1.25;;;13.50;99.50;;;;;;9178456;19;20052;-73
2022/01/01 01:08:33;;;;;;;2.30;1.50;;;13.50;99.50;;;;;;9174902;19;20018;-72
2022/01/01 01:11:43;;;;;;;1.60;1.23;;;13.50;99.50;;;;;;9176249;19;20490;-72
2022/01/01 01:14:48;;;;;;;3.45;1.63;;;13.40;99.50;;;;;;9176122;19;20015;-73
2022/01/01 01:17:57;;;;;;;2.13;1.35;;;13.50;99.50;;;;;;9174412;19;20022;-72
2022/01/01 01:21:02;;;;;;;2.42;1.40;;;13.40;99.50;;;;;;9174396;19;20026;-72
2022/01/01 01:24:07;;;;;;;2.17;1.40;;;13.50;99.50;;;;;;9174777;19;20349;-72
2022/01/01 01:27:12;;;;;;;2.22;1.40;;;13.40;99.50;;;;;;9175686;19;20019;-73
2022/01/01 01:30:17;;;;;;;2.35;1.55;;;13.50;99.50;;;;;;9176814;19;20015;-72
2022/01/01 01:33:25;;;;;;;2.60;1.40;;;13.40;99.50;;;;;;9177629;19;20018;-72
2022/01/01 01:36:30;;;;;;;2.13;1.45;;;13.40;99.50;;;;;;9172598;19;20019;-72
2022/01/01 01:39:35;;;;;;;2.53;1.60;;;13.40;99.50;;;;;;9175146;19;20023;-72
2022/01/01 01:42:43;;;;;;;3.05;1.65;;;13.40;99.50;;;;;;9173245;19;20023;-73
2022/01/01 01:45:48;;;;;;;2.15;1.40;;;13.40;99.50;;;;;;9175090;19;20022;-73
2022/01/01 01:48:56;;;;;;;2.38;1.55;;;13.40;99.50;;;;;;9175937;19;20052;-72
2022/01/01 01:52:01;;;;;;;1.48;1.10;;;13.40;99.50;;;;;;9174870;19;20021;-73
2022/01/01 01:55:09;;;;;;;2.80;1.58;;;13.40;99.50;;;;;;9169846;19;20014;-73
2022/01/01 01:58:14;;;;;;;3.38;1.80;;;13.40;99.50;;;;;;9170875;19;20018;-72
2022/01/01 02:01:27;;;;;;;2.55;1.35;;;13.40;99.50;;;;;;9170072;19;20026;-73
2022/01/01 02:04:35;;;;;;;2.28;1.63;;;13.40;99.50;;;;;;9172812;19;20011;-73
2022/01/01 02:07:40;;;;;;;3.20;1.65;;;13.40;99.50;;;;;;9174605;19;20014;-73
2022/01/01 02:10:46;;;;;;;3.08;1.70;;;13.30;99.50;;;;;;9181667;19;20030;-72
2022/01/01 02:14:04;;;;;;;3.35;1.95;;;13.40;99.50;;;;;;9182062;19;20014;-73
2022/01/01 02:17:11;;;;;;;3.63;2.10;;;13.40;99.50;;;;;;9182849;19;20022;-72
2022/01/01 02:20:21;;;;;;;2.50;1.50;;;13.30;99.50;;;;;;9180957;19;20014;-72
2022/01/01 02:23:27;;;;;;;3.35;1.90;;;13.40;99.50;;;;;;9179983;19;20029;-72
2022/01/01 02:26:35;;;;;;;2.40;1.42;;;13.40;99.50;;;;;;9181706;19;20019;-72
2022/01/01 02:29:40;;;;;;;2.63;1.70;;;13.40;99.50;;;;;;9180514;19;20011;-73
2022/01/01 02:32:45;;;;;;;3.00;1.70;;;13.40;99.50;;;;;;9181013;19;20021;-72
2022/01/01 02:35:53;;;;;;;2.53;1.52;;;13.30;99.50;;;;;;9182389;19;20332;-73
2022/01/01 02:38:58;;;;;;;2.90;1.80;;;13.30;99.50;;;;;;9178430;19;20022;-72
2022/01/01 02:42:03;;;;;;;3.08;1.67;;;13.30;99.50;;;;;;9181393;19;20018;-73
2022/01/01 02:45:11;;;;;;;3.08;1.77;;;13.30;99.50;;;;;;9180306;19;20022;-73
2022/01/01 02:48:16;;;;;;;2.00;1.50;;;13.30;99.50;;;;;;9182743;19;20488;-72
2022/01/01 02:51:24;;;;;;;3.88;2.10;;;13.30;99.50;;;;;;9173138;19;20010;-73
2022/01/01 02:54:29;;;;;;;3.65;2.10;;;13.30;99.50;;;;;;9169563;19;20019;-73
2022/01/01 02:57:35;;;;;;;3.25;1.77;;;13.30;99.50;;;;;;9173469;19;20011;-73
2022/01/01 03:00:40;;;;;;;2.63;1.90;;;13.30;99.60;;;;;;9174879;19;20774;-73
2022/01/01 03:03:46;;;;;;;3.70;1.90;;;13.30;99.60;;;;;;9178532;19;20033;-73
2022/01/01 03:06:56;;;;;;;2.67;1.77;;;13.30;99.60;;;;;;9177072;19;20015;-73
2022/01/01 03:10:01;;;;;;;3.63;1.90;;;13.30;99.60;;;;;;9178608;19;20340;-72
2022/01/01 03:13:06;;;;;;;3.88;2.10;;;13.30;99.60;;;;;;9179385;19;20018;-72
2022/01/01 03:16:11;;;;;;;3.03;2.00;;;13.30;99.60;;;;;;9176301;19;20587;-73
2022/01/01 03:19:16;;;;;;;2.47;1.58;;;13.30;99.60;;;;;;9174508;19;20435;-73
2022/01/01 03:22:24;;;;;;;2.30;2.05;;;13.30;99.60;;;;;;9175332;19;20022;-72
2022/01/01 03:25:29;;;;;;;3.15;2.17;;;13.30;99.60;;;;;;9177273;19;20029;-73
2022/01/01 03:28:35;;;;;;;2.42;1.73;;;13.30;99.60;;;;;;9179164;19;20022;-72
2022/01/01 03:31:40;;;;;;;2.75;2.00;;;13.30;99.60;;;;;;9179151;19;20018;-73
2022/01/01 03:34:45;;;;;;;2.47;1.65;;;13.30;99.80;;;;;;9177355;19;20029;-73
2022/01/01 03:37:53;;;;;;;2.65;1.70;;;13.30;99.60;;;;;;9174499;19;20038;-73
2022/01/01 03:40:58;;;;;;;3.25;2.00;;;13.30;99.60;;;;;;9176202;19;20026;-73
2022/01/01 03:44:03;;;;;;;3.22;2.05;;;13.40;99.60;;;;;;9177339;19;20482;-72
2022/01/01 03:47:09;;;;;;;2.45;1.80;;;13.30;99.60;;;;;;9176341;19;20030;-72
2022/01/01 03:50:15;;;;;;;3.08;1.90;;;13.30;99.60;;;;;;9178576;19;20366;-72
2022/01/01 03:53:25;;;;;;;2.75;1.88;;;13.30;99.60;;;;;;9173329;19;20021;-72
2022/01/01 03:56:30;;;;;;;2.90;1.80;;;13.30;99.50;;;;;;9175247;19;20598;-72
2022/01/01 03:59:35;;;;;;;2.67;1.90;;;13.30;99.50;;;;;;9176191;19;20011;-72
2022/01/01 04:02:40;;;;;;;2.53;1.85;;;13.30;99.60;;;;;;9175973;19;20101;-72
2022/01/01 04:05:47;;;;;;;3.40;1.90;;;13.30;99.60;;;;;;9174548;19;20010;-72
2022/01/01 04:08:54;;;;;;;2.67;1.73;;;13.30;99.50;;;;;;9173779;19;20018;-73
2022/01/01 04:11:59;;;;;;;2.80;1.73;;;13.30;99.50;;;;;;9174922;19;20091;-72
2022/01/01 04:15:05;;;;;;;2.33;1.58;;;13.30;99.80;;;;;;9176001;19;20025;-72
2022/01/01 04:18:12;;;;;;;2.70;1.40;;;13.30;99.50;;;;;;9175560;19;20018;-73
2022/01/01 04:21:18;;;;;;;2.70;1.63;;;13.30;99.50;;;;;;9173316;19;20021;-73
2022/01/01 04:24:25;;;;;;;3.03;1.77;;;13.30;99.50;;;;;;9173908;19;20019;-72
2022/01/01 04:27:31;;;;;;;2.58;1.60;;;13.40;99.50;;;;;;9173447;19;20056;-73
2022/01/01 04:30:36;;;;;;;3.28;1.95;;;13.30;99.50;;;;;;9176299;19;20345;-73
2022/01/01 04:33:41;;;;;;;2.63;1.70;;;13.40;99.50;;;;;;9174817;19;20500;-73
2022/01/01 04:36:49;;;;;;;1.73;1.40;;;13.30;99.50;;;;;;9174933;19;20700;-73
2022/01/01 04:39:59;;;;;;;2.53;1.35;;;13.30;99.50;;;;;;9176401;19;20077;-73
2022/01/01 04:43:04;;;;;;;3.20;1.90;;;13.30;99.50;;;;;;9173149;19;20028;-72
2022/01/01 04:46:10;;;;;;;2.15;1.50;;;13.30;99.50;;;;;;9173835;19;20014;-72
2022/01/01 04:49:15;;;;;;;2.33;1.38;;;13.30;99.40;;;;;;9174211;19;20376;-72
2022/01/01 04:52:20;;;;;;;1.98;1.58;;;13.30;99.50;;;;;;9174786;19;20393;-73
2022/01/01 04:55:28;;;;;;;2.35;1.50;;;13.30;99.50;;;;;;9168086;19;20026;-72
2022/01/01 04:58:33;;;;;;;2.20;1.45;;;13.30;99.50;;;;;;9169801;19;20017;-73
2022/01/01 05:01:38;;;;;;;2.05;1.27;;;13.30;99.50;;;;;;9168531;19;20022;-72
2022/01/01 05:04:44;;;;;;;1.80;1.20;;;13.20;99.50;;;;;;9169582;19;20017;-72
2022/01/01 05:07:50;;;;;;;2.83;1.38;;;13.20;99.50;;;;;;9167380;19;20014;-72
2022/01/01 05:10:57;;;;;;;2.03;1.30;;;13.20;99.70;;;;;;9171396;19;20022;-73
2022/01/01 05:14:02;;;;;;;2.05;1.20;;;13.30;99.50;;;;;;9175776;19;20018;-72
2022/01/01 05:17:08;;;;;;;2.00;1.00;;;13.20;99.50;;;;;;9175967;19;20451;-72
2022/01/01 05:20:13;;;;;;;1.60;1.05;;;13.20;99.50;;;;;;9175579;19;20340;-72
2022/01/01 05:23:19;;;;;;;1.70;1.00;;;13.30;99.50;;;;;;9172279;19;20491;-73
2022/01/01 05:26:26;;;;;;;1.67;1.05;;;13.20;99.50;;;;;;9171867;19;20014;-73
2022/01/01 05:29:31;;;;;;;2.30;1.20;;;13.30;99.50;;;;;;9174121;19;20010;-73
2022/01/01 05:32:36;;;;;;;2.40;1.40;;;13.20;99.50;;;;;;9173585;19;21463;-72
2022/01/01 05:35:41;;;;;;;1.95;1.10;;;13.20;99.50;;;;;;9172542;19;20014;-72
2022/01/01 05:38:47;;;;;;;1.88;1.20;;;13.20;99.50;;;;;;9173672;19;20038;-72
2022/01/01 05:41:55;;;;;;;2.45;1.23;;;13.20;99.50;;;;;;9176013;19;20376;-72
2022/01/01 05:45:00;;;;;;;1.80;1.00;;;13.20;99.50;;;;;;9179692;19;20056;-72
2022/01/01 05:48:05;;;;;;;2.45;1.27;;;13.20;99.50;;;;;;9179461;19;20114;-73
2022/01/01 05:51:10;;;;;;;3.17;1.30;;;13.20;99.50;;;;;;9178716;19;20014;-72
2022/01/01 05:54:16;;;;;;;2.40;1.20;;;13.20;99.50;;;;;;9176705;19;20014;-73
2022/01/01 05:57:24;;;;;;;1.85;1.13;;;13.20;99.50;;;;;;9180739;19;20026;-72
2022/01/01 06:00:29;;;;;;;1.55;1.00;;;13.20;99.50;;;;;;9184622;19;20015;-73
2022/01/01 06:03:34;;;;;;;1.58;1.10;;;13.20;99.50;;;;;;9182497;19;20034;-72
2022/01/01 06:06:39;;;;;;;1.88;1.02;;;13.20;99.50;;;;;;9184047;19;20021;-73
2022/01/01 06:09:45;;;;;;;1.92;1.10;;;13.20;99.50;;;;;;9179782;19;20490;-73
2022/01/01 06:12:53;;;;;;;2.58;1.23;;;13.20;99.50;;;;;;9179275;19;20029;-73
2022/01/01 06:15:58;;;;;;;1.83;1.13;;;13.20;99.50;;;;;;9180752;19;20045;-72
2022/01/01 06:19:03;;;;;;;1.90;1.20;;;13.20;99.50;;;;;;9181791;19;20014;-73
2022/01/01 06:22:09;;;;;;;2.13;1.13;;;13.20;99.50;;;;;;9181498;19;20052;-73
2022/01/01 06:25:14;;;;;;;1.25;0.95;;;13.20;99.50;;;;;;9184356;19;20038;-73
2022/01/01 06:28:21;;;;;;;2.15;1.20;;;13.20;99.50;;;;;;9178327;19;20025;-72
2022/01/01 06:31:28;;;;;;;2.40;1.20;;;13.20;99.50;;;;;;9177218;19;20023;-73
2022/01/01 06:34:33;;;;;;;2.90;1.48;;;13.30;99.50;;;;;;9178992;19;20824;-72
2022/01/01 06:37:38;;;;;;;1.60;1.10;;;13.30;99.50;;;;;;9177806;19;20018;-72
2022/01/01 06:40:44;;;;;;;2.20;1.45;;;13.30;99.50;;;;;;9177071;19;20025;-73
2022/01/01 06:43:52;;;;;;;2.33;1.38;;;13.20;99.50;;;;;;9181841;19;20010;-73
2022/01/01 06:46:57;;;;;;;2.03;1.17;;;13.30;99.50;;;;;;9182560;19;20487;-72
2022/01/01 06:50:02;;;;;;;2.03;1.10;;;13.30;99.50;;;;;;9180914;19;20022;-72
2022/01/01 06:53:07;;;;;;;3.05;1.58;;;13.30;99.50;;;;;;9173442;19;20022;-72
2022/01/01 06:56:12;;;;;;;3.00;1.70;;;13.30;99.50;;;;;;9177109;19;20019;-73
2022/01/01 06:59:20;;;;;;;3.30;1.50;;;13.20;99.50;;;;;;9178336;19;20498;-72
2022/01/01 07:02:25;;;;;;;2.05;1.20;;;13.30;99.50;;;;;;9179884;19;20014;-73
2022/01/01 07:05:30;;;;;;;2.90;1.55;;;13.30;99.50;;;;;;9180891;19;20467;-73
2022/01/01 07:08:35;;;;;;;2.08;1.17;;;13.20;99.50;;;;;;9180426;19;20029;-72
2022/01/01 07:11:40;;;;;;;1.45;1.20;;;13.30;99.50;;;;;;9181766;19;20018;-73
2022/01/01 07:14:48;;;;;;;1.60;1.20;;;13.30;99.50;;;;;;9178213;19;20490;-73
2022/01/01 07:17:52;;;;;;;1.88;1.33;;;13.30;99.50;;;;;;9176335;19;20014;-72
2022/01/01 07:20:57;;;;;;;1.50;1.23;;;13.30;99.50;;;;;;9177597;19;20761;-72
2022/01/01 07:24:02;;;;;;;2.28;1.35;;;13.30;99.50;;;;;;9178258;19;20014;-73
2022/01/01 07:27:08;;;;;;;2.42;1.33;;;13.30;99.50;;;;;;9178209;19;20022;-72
2022/01/01 07:30:16;;;;;;;3.20;1.13;;;13.30;99.50;;;;;;9180024;19;20019;-73
2022/01/01 07:33:25;;;;;;;2.83;1.60;;;13.30;99.50;;;;;;9178229;19;20022;-72
2022/01/01 07:36:30;;;;;;;2.30;1.40;;;13.30;99.50;;;;;;9177185;19;20026;-73
2022/01/01 07:39:36;;;;;;;2.03;1.40;;;13.30;99.50;;;;;;9175435;19;20022;-73
2022/01/01 07:42:42;;;;;;;1.63;1.30;;;13.30;99.50;;;;;;9176522;19;20601;-73
2022/01/01 07:45:49;;;;;;;2.80;1.45;;;13.30;99.50;;;;;;9179020;19;20018;-73
2022/01/01 07:48:54;;;;;;;1.80;1.05;;;13.30;99.50;;;;;;9177954;19;20025;-72
2022/01/01 07:51:59;;;;;;;3.63;1.70;;;13.30;99.50;;;;;;9178403;19;20010;-72
2022/01/01 07:55:05;;;;;;;1.55;1.10;;;13.30;99.50;;;;;;9173088;19;20479;-73
2022/01/01 07:58:09;;;;;;;1.67;1.10;;;13.30;99.50;;;;;;9175460;19;20024;-72
2022/01/01 08:01:17;;;;;;;2.58;1.08;;;13.30;99.50;;;;;;9176826;19;20014;-73
2022/01/01 08:04:22;;;;;;;1.73;0.95;;;13.30;99.50;;;;;;9177017;19;20015;-73
2022/01/01 08:07:28;;;;;;;1.35;0.82;;;13.30;99.50;;;;;;9174243;19;20018;-73
2022/01/01 08:10:53;;;;;;;1.90;0.88;;;13.30;99.50;;;;;;9176748;19;20022;-72
2022/01/01 08:13:58;;;;;;;1.30;0.93;;;13.30;99.50;;;;;;9177124;19;20014;-73
2022/01/01 08:17:07;;;;;;;1.92;0.80;;;13.30;99.50;;;;;;9178493;19;20035;-73
2022/01/01 08:20:13;;;;;;;2.40;1.02;;;13.30;99.50;;;;;;9173692;19;20018;-73
2022/01/01 08:23:18;;;;;;;1.50;0.70;;;13.30;99.50;;;;;;9173476;19;20051;-73
2022/01/01 08:26:23;;;;;;;1.48;1.10;;;13.30;99.50;;;;;;9176177;19;20041;-73
2022/01/01 08:29:29;;;;;;;2.25;1.05;;;13.30;99.80;;;;;;9176273;19;20017;-73
2022/01/01 08:32:37;;;;;;;1.75;1.00;;;13.30;99.60;;;;;;9175305;19;20030;-73
2022/01/01 08:35:41;;;;;;;1.23;0.80;;;13.30;99.60;;;;;;9174174;19;20022;-72
2022/01/01 08:38:48;;;;;;;1.27;0.88;;;13.30;99.60;;;;;;9176882;19;20010;-73
2022/01/01 08:41:53;;;;;;;1.20;0.60;;;13.30;99.60;;;;;;9175101;19;20010;-73
2022/01/01 08:44:58;;;;;;;2.17;0.80;;;13.30;99.60;;;;;;9174652;19;20022;-73
2022/01/01 08:48:07;;;;;;;1.73;0.80;;;13.30;99.60;;;;;;9171787;19;20014;-72
2022/01/01 08:51:16;;;;;;;1.48;0.70;;;13.30;99.60;;;;;;9173973;19;20353;-73
2022/01/01 08:54:21;;;;;;;1.33;0.77;;;13.30;99.60;;;;;;9172587;19;20011;-73
2022/01/01 08:57:26;;;;;;;1.38;0.98;;;13.40;99.60;;;;;;9176207;19;20014;-73
2022/01/01 09:00:31;;;;;;;1.20;0.80;;;13.40;99.60;;;;;;9176908;19;20018;-73
2022/01/01 09:03:41;;;;;;;1.30;0.70;;;13.40;99.60;;;;;;9172998;19;20021;-72
2022/01/01 09:06:46;;;;;;;1.40;0.70;;;13.40;99.60;;;;;;9171833;19;20019;-73
2022/01/01 09:09:51;;;;;;;0.65;0.50;;;13.40;99.70;;;;;;9171424;19;20022;-73
2022/01/01 09:12:56;;;;;;;0.88;0.60;;;13.40;99.70;;;;;;9172183;19;20022;-73
2022/01/01 09:16:03;;;;;;;0.77;0.63;;;13.40;99.70;;;;;;9173984;19;20026;-73
2022/01/01 09:19:10;;;;;;;1.10;0.65;;;13.40;99.70;;;;;;9172226;19;20010;-73
2022/01/01 09:22:15;;;;;;;1.17;0.60;;;13.40;99.70;;;;;;9175208;19;20442;-73
2022/01/01 09:25:20;;;;;;;1.25;0.68;;;13.40;99.70;;;;;;9173306;19;20030;-72
2022/01/01 09:28:25;;;;;;;1.23;0.70;;;13.40;99.90;;;;;;9171845;19;20522;-73
2022/01/01 09:31:31;;;;;;;0.82;0.50;;;13.50;99.70;;;;;;9172307;19;20068;-73
2022/01/01 09:34:39;;;;;;;1.45;0.60;;;13.50;99.70;;;;;;9172873;19;20029;-72
2022/01/01 09:37:44;;;;;;;0.82;0.60;;;13.50;99.70;;;;;;9173949;19;20010;-73
2022/01/01 09:40:49;;;;;;;1.13;0.60;;;13.50;99.70;;;;;;9176850;19;20010;-73
2022/01/01 09:43:56;;;;;;;0.98;0.52;;;13.60;99.80;;;;;;9173164;19;20082;-73
2022/01/01 09:47:01;;;;;;;2.03;0.60;;;13.60;99.80;;;;;;9173228;19;20128;-73
2022/01/01 09:50:11;;;;;;;1.60;0.70;;;13.60;99.80;;;;;;9170963;19;20023;-73
2022/01/01 09:53:17;;;;;;;1.05;0.70;;;13.60;99.80;;;;;;9168504;19;20014;-73
2022/01/01 09:56:22;;;;;;;0.75;0.60;;;13.70;99.80;;;;;;9174078;19;20380;-72
2022/01/01 09:59:27;;;;;;;1.42;0.63;;;13.70;99.80;;;;;;9172970;19;20023;-73
2022/01/01 10:02:34;;;;;;;0.70;0.55;;;13.70;99.80;;;;;;9172083;19;20129;-73
2022/01/01 10:05:59;;;;;;;0.82;0.43;;;13.80;99.80;;;;;;9170960;19;20487;-73
2022/01/01 10:09:07;;;;;;;0.70;0.50;;;13.80;99.70;;;;;;9170450;19;20014;-73
2022/01/01 10:12:17;;;;;;;0.43;0.43;;;13.80;99.70;;;;;;9170979;19;20025;-73
2022/01/01 10:15:22;;;;;;;0.57;0.43;;;13.80;99.70;;;;;;9170209;19;20023;-72
2022/01/01 10:18:29;;;;;;;0.95;0.60;;;13.90;99.70;;;;;;9172699;19;20120;-73
2022/01/01 10:21:40;;;;;;;1.23;0.63;;;13.90;99.70;;;;;;9172860;19;20364;-73
2022/01/01 10:28:15;;;;;;;0.52;0.45;;;13.90;99.70;;;;;;9170973;19;20025;-73
2022/01/01 10:31:20;;;;;;;0.68;0.50;;;14.00;99.70;;;;;;9180782;19;20343;-73
2022/01/01 10:34:28;;;;;;;0.80;0.40;;;14.00;99.70;;;;;;9178185;19;20022;-73
2022/01/01 10:37:37;;;;;;;0.88;0.40;;;14.00;99.60;;;;;;9179242;19;20550;-73
2022/01/01 10:40:46;;;;;;;0.75;0.47;;;14.00;99.60;;;;;;9175406;19;20015;-73
2022/01/01 10:43:52;;;;;;;0.70;0.40;;;14.10;99.60;;;;;;9180315;19;20015;-72
2022/01/01 10:46:57;;;;;;;0.77;0.55;;;14.10;99.50;;;;;;9179507;19;20649;-72
2022/01/01 10:50:17;;;;;;;0.85;0.52;;;14.10;99.50;;;;;;9181704;19;20536;-73
2022/01/01 10:53:26;;;;;;;0.85;0.60;;;14.10;99.50;;;;;;9177406;19;20018;-72
2022/01/01 10:56:39;;;;;;;0.75;0.50;;;14.10;99.50;;;;;;9179127;19;20062;-72
2022/01/01 10:59:45;;;;;;;0.52;0.35;;;14.10;99.50;;;;;;9178472;19;20014;-73
2022/01/01 11:02:52;;;;;;;0.55;0.38;;;14.10;99.50;;;;;;9176229;19;20506;-73
2022/01/01 11:06:07;;;;;;;0.77;0.50;;;14.10;99.50;;;;;;9176528;19;20090;-73
2022/01/01 11:09:17;;;;;;;0.90;0.50;;;14.10;99.40;;;;;;9177939;19;20545;-72
2022/01/01 11:12:22;;;;;;;0.73;0.47;;;14.10;99.40;;;;;;9179597;19;20021;-72
2022/01/01 11:15:28;;;;;;;0.65;0.47;;;14.10;99.40;;;;;;9181158;19;20044;-73
2022/01/01 11:18:34;;;;;;;0.52;0.38;;;14.10;99.40;;;;;;9179152;19;20646;-73
2022/01/01 11:21:40;;;;;;;0.88;0.30;;;14.10;99.40;;;;;;9175129;19;20340;-73
2022/01/01 11:24:48;;;;;;;0.68;0.32;;;14.20;99.40;;;;;;9176661;19;20029;-73
2022/01/01 11:27:54;;;;;;;1.05;0.40;;;14.10;99.40;;;;;;9177733;19;20351;-73
2022/01/01 11:31:05;;;;;;;0.43;0.25;;;14.20;99.40;;;;;;9176321;19;20039;-73
2022/01/01 11:34:11;;;;;;;0.63;0.30;;;14.20;99.30;;;;;;9176681;19;20677;-73
2022/01/01 11:37:17;;;;;;;1.48;0.55;;;14.20;99.40;;;;;;9178499;19;20021;-73
2022/01/01 11:40:25;;;;;;;2.00;0.55;;;14.20;99.40;;;;;;9177870;19;20025;-72
2022/01/01 11:43:42;;;;;;;0.60;0.50;;;14.20;99.30;;;;;;9174724;19;20029;-72
2022/01/01 11:46:59;;;;;;;1.13;0.47;;;14.20;99.30;;;;;;9176439;19;20360;-72
2022/01/01 11:50:08;;;;;;;0.57;0.30;;;14.20;99.30;;;;;;9175409;19;20015;-72
2022/01/01 11:53:31;;;;;;;0.75;0.35;;;14.20;99.40;;;;;;9171914;19;20125;-72
2022/01/01 11:57:01;;;;;;;0.50;0.40;;;14.20;99.30;;;;;;9174759;19;20380;-72
2022/01/01 12:00:15;;;;;;;0.35;0.25;;;14.20;99.30;;;;;;9174376;19;20348;-73
2022/01/01 12:03:26;;;;;;;1.08;0.50;;;14.20;99.30;;;;;;9173173;19;20547;-72
2022/01/01 12:06:31;;;;;;;0.93;0.43;;;14.30;99.40;;;;;;9174028;19;20013;-72
2022/01/01 12:09:50;;;;;;;0.50;0.30;;;14.30;99.40;;;;;;9177811;19;20539;-72
2022/01/01 12:12:59;;;;;;;0.35;0.35;;;14.30;99.30;;;;;;9170610;19;20014;-72
2022/01/01 12:16:23;;;;;;;1.58;0.30;;;14.30;99.40;;;;;;9166102;19;20018;-72
2022/01/01 12:19:29;;;;;;;0.40;0.30;;;14.30;99.30;;;;;;9168724;19;20029;-72
2022/01/01 12:22:39;;;;;;;0.30;0.30;;;14.30;99.40;;;;;;9170975;19;20022;-73
2022/01/01 12:25:46;;;;;;;0.50;0.35;;;14.30;99.40;;;;;;9167419;19;20560;-72
2022/01/01 12:28:55;;;;;;;0.30;0.30;;;14.40;99.40;;;;;;9170370;19;20022;-72
2022/01/01 12:32:02;;;;;;;0.50;0.30;;;14.40;99.40;;;;;;9164930;19;20018;-72
2022/01/01 12:35:12;;;;;;;0.28;0.20;;;14.40;99.40;;;;;;9164973;19;20015;-72
2022/01/01 12:38:22;;;;;;;0.52;0.30;;;14.40;99.30;;;;;;9165233;19;20026;-72
2022/01/01 12:41:34;;;;;;;0.30;0.25;;;14.40;99.30;;;;;;9162128;19;20377;-72
2022/01/01 12:44:45;;;;;;;0.40;0.30;;;14.40;99.30;;;;;;9161873;19;20018;-72
2022/01/01 12:47:51;;;;;;;1.05;0.35;;;14.40;99.30;;;;;;9166324;19;20119;-72
2022/01/01 12:51:05;;;;;;;1.10;0.32;;;14.50;99.30;;;;;;9165312;19;20060;-72
2022/01/01 12:54:12;;;;;;;0.77;0.40;;;14.50;99.30;;;;;;9160767;19;20045;-73
2022/01/01 12:57:18;;;;;;;0.50;0.22;;;14.50;99.30;;;;;;9167555;19;20014;-71
2022/01/01 13:00:26;;;;;;;0.60;0.40;;;14.50;99.30;;;;;;9166399;19;20034;-72
2022/01/01 13:03:33;;;;;;;0.57;0.30;;;14.40;99.20;;;;;;9170254;19;20344;-72
2022/01/01 13:06:40;;;;;;;0.73;0.45;;;14.50;99.20;;;;;;9166857;19;20294;-72
2022/01/01 13:09:48;;;;;;;0.40;0.20;;;14.50;99.30;;;;;;9165459;19;20014;-72
2022/01/01 13:12:55;;;;;;;0.30;0.30;;;14.50;99.20;;;;;;9164913;19;20014;-73
2022/01/01 13:16:02;;;;;;;0.50;0.30;;;14.50;99.20;;;;;;9167133;19;20034;-72
2022/01/01 13:19:08;;;;;;;0.38;0.20;;;14.50;99.20;;;;;;9167604;19;20018;-73
2022/01/01 13:22:13;;;;;;;0.40;0.25;;;14.40;99.20;;;;;;9165899;19;20014;-72
2022/01/01 13:25:18;;;;;;;0.40;0.20;;;14.40;99.20;;;;;;9169229;19;20025;-72
2022/01/01 13:28:28;;;;;;;0.73;0.47;;;14.40;99.10;;;;;;9164888;19;20030;-72
2022/01/01 13:31:37;;;;;;;0.57;0.30;;;14.40;99.10;;;;;;9166033;19;20023;-72
2022/01/01 13:34:43;;;;;;;0.10;0.10;;;14.40;99.10;;;;;;9164616;19;20009;-72
2022/01/01 13:37:48;;;;;;;0.68;0.40;;;14.40;99.10;;;;;;9167367;19;20014;-71
2022/01/01 13:40:56;;;;;;;0.75;0.45;;;14.40;99.10;;;;;;9165552;19;20022;-72
2022/01/01 13:44:17;;;;;;;0.35;0.30;;;14.40;99.10;;;;;;9166205;19;20025;-71
2022/01/01 13:47:31;;;;;;;0.55;0.40;;;14.40;99.20;;;;;;9165593;19;20579;-72
2022/01/01 13:50:44;;;;;;;0.40;0.30;;;14.40;99.10;;;;;;9163491;19;20022;-71
2022/01/01 13:53:50;;;;;;;0.70;0.43;;;14.40;99.10;;;;;;9160306;19;20030;-72
2022/01/01 13:57:00;;;;;;;0.32;0.22;;;14.40;99.10;;;;;;9165912;19;20395;-72
2022/01/01 14:00:07;;;;;;;0.40;0.40;;;14.40;99.10;;;;;;9161896;19;20030;-73
2022/01/01 14:03:20;;;;;;;0.98;0.30;;;14.40;99.10;;;;;;9161125;19;21149;-72
2022/01/01 14:06:26;;;;;;;0.60;0.43;;;14.40;99.10;;;;;;9172195;19;20368;-72
2022/01/01 14:09:31;;;;;;;0.50;0.30;;;14.40;99.10;;;;;;9168668;19;20022;-72
2022/01/01 14:12:38;;;;;;;0.45;0.40;;;14.40;99.10;;;;;;9173313;19;20023;-73
2022/01/01 14:15:43;;;;;;;0.20;0.20;;;14.40;99.10;;;;;;9164081;19;20750;-72
2022/01/01 14:18:52;;;;;;;0.55;0.30;;;14.40;99.10;;;;;;9163813;19;20018;-72
2022/01/01 14:22:09;;;;;;;0.70;0.35;;;14.30;99.00;;;;;;9161635;19;20018;-72
2022/01/01 14:25:16;;;;;;;0.45;0.30;;;14.30;99.10;;;;;;9169876;19;20578;-72
2022/01/01 14:28:22;;;;;;;0.32;0.32;;;14.30;99.10;;;;;;9174396;19;20753;-72
2022/01/01 14:31:27;;;;;;;0.28;0.28;;;14.30;99.10;;;;;;9175660;19;20360;-72
2022/01/01 14:34:35;;;;;;;1.27;0.30;;;14.30;99.10;;;;;;9174567;19;20018;-73
2022/01/01 14:37:40;;;;;;;0.70;0.32;;;14.30;99.00;;;;;;9168180;19;20364;-72
2022/01/01 14:40:46;;;;;;;0.20;0.10;;;14.30;99.00;;;;;;9168887;19;20479;-71
2022/01/01 14:43:51;;;;;;;0.38;0.30;;;14.30;99.00;;;;;;9169709;19;20018;-71
2022/01/01 14:47:01;;;;;;;0.38;0.30;;;14.30;99.00;;;;;;9165979;19;20748;-72
2022/01/01 14:50:09;;;;;;;0.50;0.47;;;14.30;99.00;;;;;;9169714;19;20625;-73
2022/01/01 14:53:20;;;;;;;0.50;0.28;;;14.30;99.00;;;;;;9166983;19;20086;-71
2022/01/01 14:56:41;;;;;;;0.32;0.20;;;14.20;99.00;;;;;;9169363;19;20030;-72
2022/01/01 14:59:48;;;;;;;0.30;0.25;;;14.20;99.00;;;;;;9167766;19;20052;-72
2022/01/01 15:02:54;;;;;;;0.38;0.22;;;14.20;99.00;;;;;;9168531;19;20391;-72
2022/01/01 15:06:03;;;;;;;0.43;0.20;;;14.20;99.00;;;;;;9169361;19;20025;-72
2022/01/01 15:09:08;;;;;;;0.25;0.20;;;14.20;99.00;;;;;;9169899;19;20777;-72
2022/01/01 15:12:14;;;;;;;0.57;0.17;;;14.20;99.00;;;;;;9169288;19;20153;-71
2022/01/01 15:15:19;;;;;;;0.20;0.20;;;14.10;99.00;;;;;;9170195;19;20025;-72
2022/01/01 15:18:25;;;;;;;0.57;0.20;;;14.10;99.00;;;;;;9173340;19;20025;-72
2022/01/01 15:21:40;;;;;;;0.45;0.20;;;14.10;99.00;;;;;;9170874;19;20638;-73
2022/01/01 15:24:50;;;;;;;0.25;0.20;;;14.10;99.00;;;;;;9165707;19;20078;-72
2022/01/01 15:27:57;;;;;;;0.70;0.30;;;14.10;99.00;;;;;;9167097;19;20164;-72
2022/01/01 15:31:08;;;;;;;0.25;0.20;;;14.10;99.00;;;;;;9167029;19;20375;-72
2022/01/01 15:34:22;;;;;;;0.30;0.20;;;14.00;99.00;;;;;;9166835;19;20014;-72
2022/01/01 15:37:34;;;;;;;0.65;0.30;;;14.00;99.00;;;;;;9167258;19;20594;-72
2022/01/01 15:40:52;;;;;;;0.30;0.20;;;14.00;99.00;;;;;;9169524;19;20511;-71
2022/01/01 15:43:57;;;;;;;0.75;0.40;;;14.00;99.00;;;;;;9167841;19;20498;-72
2022/01/01 15:47:04;;;;;;;0.30;0.10;;;13.90;99.00;;;;;;9167682;19;20021;-72
2022/01/01 15:50:11;;;;;;;0.17;0.17;;;13.90;99.00;;;;;;9167364;19;20037;-72
2022/01/01 15:53:22;;;;;;;0.20;0.20;;;14.00;99.00;;;;;;9162603;19;20014;-72
2022/01/01 15:56:40;;;;;;;0.30;0.20;;;13.90;99.00;;;;;;9168351;19;20795;-72
2022/01/01 15:59:53;;;;;;;0.22;0.20;;;13.90;98.90;;;;;;9167648;19;20021;-72
2022/01/01 16:03:11;;;;;;;1.05;0.20;;;13.80;98.90;;;;;;9168258;19;20014;-72
2022/01/01 16:06:23;;;;;;;0.30;0.10;;;13.80;98.90;;;;;;9167122;19;20086;-72
2022/01/01 16:09:41;;;;;;;0.28;0.20;;;13.80;99.00;;;;;;9167758;19;20053;-72
2022/01/01 16:12:54;;;;;;;0.80;0.40;;;13.80;98.90;;;;;;9165666;19;20310;-72
2022/01/01 16:16:03;;;;;;;0.20;0.10;;;13.70;98.90;;;;;;9165620;19;20781;-72
2022/01/01 16:19:09;;;;;;;0.10;0.10;;;13.70;98.90;;;;;;9164618;19;20719;-70